FYRU

Rundu Airport

Airport
ICAO code
FYRU
IATA Code
NDU
Summary
ICAO Region
AFI
ICAO Territory
Location

Rundu, Kavango

Serving
Rundu
Elevation
3627 ft
Coordinates
17° 57' 36" S , 19° 43' 14" E
KCC
Metar
FYRU 272100Z AUTO 15003KT //// // ////// 18/02 Q1027

Rundu Airport is an airport serving Rundu, the capital of the Kavango Region in Namibia.

Climatology

Warm, semi-arid/Steppe climate (Köppen climate classification BSh)

Runways

Designator Length Width Surface Rops
18/36 1465 30 GVL No/No
8/26 3354 30 ASP No/No

Airport map

Aerial View

SKYbrary Partners:

Safety knowledge contributed by: